createdAt,value
2023-01-02T00:03:45.681Z,11.95
2023-01-02T00:08:39.235Z,20.23
2023-01-02T00:13:32.294Z,23.73
2023-01-02T00:18:25.826Z,23.15
2023-01-02T00:23:18.867Z,17.25
2023-01-02T00:28:12.617Z,19.00
2023-01-02T00:33:07.525Z,21.30
2023-01-02T00:38:01.257Z,17.92
2023-01-02T00:42:55.080Z,16.05
2023-01-02T00:47:49.240Z,16.05
2023-01-02T00:52:43.357Z,15.48
2023-01-02T00:57:36.561Z,17.02
2023-01-02T01:02:30.734Z,18.02
2023-01-02T01:07:23.976Z,22.10
2023-01-02T01:12:18.099Z,24.13
2023-01-02T01:17:11.594Z,23.42
2023-01-02T01:22:05.974Z,28.35
2023-01-02T01:27:00.172Z,30.30
2023-01-02T01:31:57.903Z,30.95
2023-01-02T01:36:52.364Z,29.73
2023-01-02T01:41:46.897Z,28.30
2023-01-02T01:46:43.204Z,27.23
2023-01-02T01:51:40.933Z,26.65
2023-01-02T01:56:37.388Z,26.65
2023-01-02T02:01:31.149Z,29.33
2023-01-02T02:06:25.105Z,27.30
2023-01-02T02:11:19.084Z,27.58
2023-01-02T02:16:17.796Z,28.35
2023-01-02T02:21:31.786Z,26.55
2023-01-02T02:26:40.116Z,24.50
2023-01-02T02:31:52.226Z,26.50
2023-01-02T02:36:52.171Z,26.33
2023-01-02T02:42:04.353Z,25.42
2023-01-02T02:47:01.453Z,26.67
2023-01-02T02:52:27.465Z,25.73
2023-01-02T02:57:22.026Z,26.23
2023-01-02T03:02:16.894Z,26.05
2023-01-02T03:07:35.895Z,26.02
2023-01-02T03:12:48.910Z,26.38
2023-01-02T03:18:05.744Z,27.87
2023-01-02T03:23:01.723Z,26.35
2023-01-02T03:27:57.204Z,29.55
2023-01-02T03:32:57.244Z,28.67
2023-01-02T03:37:54.572Z,28.17
2023-01-02T03:42:53.833Z,27.58
2023-01-02T03:48:15.307Z,28.77
2023-01-02T03:53:09.414Z,26.98
2023-01-02T03:58:08.345Z,26.17
2023-01-02T04:03:06.700Z,26.33
2023-01-02T04:08:17.585Z,25.65
2023-01-02T04:13:18.194Z,26.45
2023-01-02T04:18:23.377Z,26.55
2023-01-02T04:23:34.441Z,26.00
2023-01-02T04:28:29.883Z,24.73
2023-01-02T04:33:24.096Z,24.00
2023-01-02T04:38:17.804Z,22.23
2023-01-02T04:43:21.964Z,20.20
2023-01-02T04:48:15.855Z,20.17
2023-01-02T04:53:11.238Z,21.58
2023-01-02T04:58:05.389Z,20.45
2023-01-02T05:02:58.832Z,19.50
2023-01-02T05:12:46.258Z,19.02
2023-01-02T05:17:41.583Z,20.92
2023-01-02T05:22:52.587Z,18.70
2023-01-02T05:27:47.402Z,17.95
2023-01-02T05:32:41.323Z,17.80
2023-01-02T05:37:35.379Z,18.17
2023-01-02T05:42:29.376Z,18.05
2023-01-02T05:47:22.831Z,17.80
2023-01-02T05:52:15.963Z,17.25
2023-01-02T05:57:12.716Z,18.00
2023-01-02T06:02:05.703Z,18.70
2023-01-02T06:06:59.263Z,20.75
2023-01-02T06:11:52.627Z,20.25
2023-01-02T06:16:46.878Z,17.52
2023-01-02T06:21:40.331Z,17.42
2023-01-02T06:26:35.452Z,16.47
2023-01-02T06:31:30.645Z,17.35
2023-01-02T06:36:24.642Z,16.98
2023-01-02T06:41:22.413Z,17.38
2023-01-02T06:46:18.371Z,16.80
2023-01-02T06:51:17.786Z,16.42
2023-01-02T06:56:15.931Z,17.75
2023-01-02T07:01:40.627Z,18.08
2023-01-02T07:06:35.596Z,16.80
2023-01-02T07:11:29.225Z,16.65
2023-01-02T07:16:23.938Z,15.48
2023-01-02T07:21:19.179Z,16.23
2023-01-02T07:26:12.748Z,16.08
2023-01-02T07:31:30.635Z,16.13
2023-01-02T07:36:24.813Z,14.77
2023-01-02T07:41:20.083Z,14.18
2023-01-02T07:46:14.678Z,15.18
2023-01-02T07:51:09.105Z,15.73
2023-01-02T07:56:04.131Z,14.57
2023-01-02T08:01:04.884Z,14.80
2023-01-02T08:06:10.285Z,13.60
2023-01-02T08:11:31.380Z,15.95
2023-01-02T08:16:25.528Z,15.43
2023-01-02T08:21:18.948Z,14.48
2023-01-02T08:26:12.856Z,16.33
2023-01-02T08:36:03.360Z,14.57
2023-01-02T08:40:59.708Z,14.75
2023-01-02T08:45:53.548Z,15.45
2023-01-02T08:55:39.862Z,15.50
2023-01-02T09:00:33.503Z,13.70
2023-01-02T09:05:28.075Z,15.20
2023-01-02T09:10:22.731Z,15.27
2023-01-02T09:15:16.841Z,15.57
2023-01-02T09:20:11.149Z,15.75
2023-01-02T09:25:06.510Z,15.32
2023-01-02T09:30:00.493Z,16.92
2023-01-02T09:34:54.471Z,18.75
2023-01-02T09:39:48.080Z,18.70
2023-01-02T09:44:48.212Z,20.77
2023-01-02T09:49:55.375Z,23.00
2023-01-02T09:54:49.293Z,25.70
2023-01-02T09:59:51.572Z,24.23
2023-01-02T10:05:08.494Z,21.55
2023-01-02T10:10:13.467Z,20.65
2023-01-02T10:15:08.247Z,21.83
2023-01-02T10:20:24.088Z,19.13
2023-01-02T10:25:56.821Z,17.50
2023-01-02T10:31:12.470Z,18.10
2023-01-02T10:36:06.660Z,16.92
2023-01-02T10:41:00.301Z,18.02
2023-01-02T10:50:50.882Z,16.35
2023-01-02T10:55:46.344Z,14.05
2023-01-02T11:00:40.572Z,15.65
2023-01-02T11:05:34.632Z,15.50
2023-01-02T11:10:39.769Z,17.02
2023-01-02T11:15:37.724Z,16.30
2023-01-02T11:20:35.993Z,15.55
2023-01-02T11:25:43.929Z,15.05
2023-01-02T11:30:51.839Z,14.35
2023-01-02T11:35:51.687Z,13.48
2023-01-02T11:40:58.729Z,15.00
2023-01-02T11:45:53.798Z,13.60
2023-01-02T11:50:47.423Z,14.15
2023-01-02T11:55:47.768Z,13.77
2023-01-02T12:00:43.101Z,14.13
2023-01-02T12:05:45.568Z,14.88
2023-01-02T12:11:03.642Z,16.60
2023-01-02T12:16:08.690Z,14.65
2023-01-02T12:21:25.937Z,16.20
2023-01-02T12:26:25.027Z,14.95
2023-01-02T12:31:31.858Z,16.35
2023-01-02T12:36:37.052Z,17.90
2023-01-02T12:42:00.895Z,20.30
2023-01-02T12:47:14.032Z,22.30
2023-01-02T12:52:06.652Z,24.50
2023-01-02T12:57:05.599Z,25.42
2023-01-02T13:02:20.365Z,20.85
2023-01-02T13:07:31.957Z,20.45
2023-01-02T13:12:27.007Z,19.05
2023-01-02T13:17:38.320Z,20.83
2023-01-02T13:22:55.373Z,21.35
2023-01-02T13:27:51.167Z,20.40
2023-01-02T13:32:45.413Z,19.38
2023-01-02T13:37:38.649Z,17.90
2023-01-02T13:42:54.150Z,18.13
2023-01-02T13:47:50.644Z,20.55
2023-01-02T13:53:09.880Z,19.20
2023-01-02T13:58:14.964Z,19.52
2023-01-02T14:03:25.824Z,19.65
2023-01-02T14:08:24.318Z,18.38
2023-01-02T14:13:30.476Z,18.35
2023-01-02T14:18:31.205Z,19.30
2023-01-02T14:23:29.042Z,19.25
2023-01-02T14:28:48.132Z,19.10
2023-01-02T14:33:40.609Z,20.58
2023-01-02T14:38:39.151Z,20.73
2023-01-02T14:43:36.561Z,19.65
2023-01-02T14:48:59.890Z,19.63
2023-01-02T14:58:52.043Z,19.27
2023-01-02T15:04:12.722Z,20.77
2023-01-02T15:09:15.981Z,20.60
2023-01-02T15:14:23.520Z,21.58
2023-01-02T15:19:23.397Z,23.77
2023-01-02T15:24:39.624Z,24.83
2023-01-02T15:29:37.296Z,23.77
2023-01-02T15:34:33.896Z,25.45
2023-01-02T15:39:36.422Z,25.70
2023-01-02T15:44:54.273Z,26.73
2023-01-02T15:49:48.680Z,27.25
2023-01-02T15:54:42.546Z,26.55
2023-01-02T15:59:38.853Z,26.23
2023-01-02T16:04:34.328Z,26.38
2023-01-02T16:09:31.244Z,26.58
2023-01-02T16:14:48.121Z,50.75
2023-01-02T16:19:56.269Z,31.65
2023-01-02T16:25:01.653Z,26.08
2023-01-02T16:29:56.316Z,29.20
2023-01-02T16:35:04.425Z,29.55
2023-01-02T16:39:59.166Z,25.98
2023-01-02T16:44:57.213Z,27.20
2023-01-02T16:49:50.289Z,24.65
2023-01-02T16:54:46.126Z,29.23
2023-01-02T16:59:43.272Z,27.35
2023-01-02T17:04:37.220Z,25.40
2023-01-02T17:09:31.033Z,28.65
2023-01-02T17:14:24.085Z,28.80
2023-01-02T17:19:19.313Z,29.45
2023-01-02T17:24:12.862Z,29.05
2023-01-02T17:34:02.384Z,27.42
2023-01-02T17:38:55.984Z,26.77
2023-01-02T17:48:56.026Z,27.17
2023-01-02T17:53:52.205Z,30.13
2023-01-02T17:58:46.456Z,27.10
2023-01-02T18:03:40.728Z,28.85
2023-01-02T18:08:35.870Z,31.63
2023-01-02T18:13:30.312Z,28.30
2023-01-02T18:18:25.277Z,27.27
2023-01-02T18:23:19.379Z,29.45
2023-01-02T18:28:26.950Z,30.15
2023-01-02T18:33:22.104Z,28.23
2023-01-02T18:38:24.762Z,25.08
2023-01-02T18:43:28.494Z,25.13
2023-01-02T18:48:23.604Z,25.13
2023-01-02T18:53:22.239Z,30.95
2023-01-02T18:58:37.763Z,28.65
2023-01-02T19:03:32.153Z,23.30
2023-01-02T19:08:36.075Z,23.85
2023-01-02T19:13:33.718Z,23.83
2023-01-02T19:18:47.159Z,23.67
2023-01-02T19:24:00.475Z,23.63
2023-01-02T19:28:58.382Z,24.02
2023-01-02T19:34:02.218Z,26.67
2023-01-02T19:38:56.170Z,38.33
2023-01-02T19:43:50.874Z,27.73
2023-01-02T19:48:45.620Z,31.10
2023-01-02T19:53:40.554Z,30.40
2023-01-02T19:58:34.340Z,28.58
2023-01-02T20:03:28.312Z,26.52
2023-01-02T20:08:21.803Z,27.48
2023-01-02T20:13:15.821Z,30.63
2023-01-02T20:18:13.945Z,28.98
2023-01-02T20:23:09.301Z,28.50
2023-01-02T20:28:04.680Z,28.90
2023-01-02T20:32:58.546Z,27.10
2023-01-02T20:37:52.442Z,27.38
2023-01-02T20:42:46.331Z,30.05
2023-01-02T20:47:40.201Z,27.02
2023-01-02T20:52:33.622Z,35.28
2023-01-02T21:02:21.386Z,36.85
2023-01-02T21:07:14.605Z,26.75
2023-01-02T21:17:21.749Z,30.57
2023-01-02T21:22:15.513Z,35.10
2023-01-02T21:27:13.248Z,34.92
2023-01-02T21:32:10.605Z,35.78
2023-01-02T21:37:04.735Z,30.83
2023-01-02T21:42:16.661Z,33.50
2023-01-02T21:47:11.039Z,33.55
2023-01-02T21:52:04.415Z,37.50
2023-01-02T21:56:58.591Z,35.28
2023-01-02T22:01:54.406Z,38.55
2023-01-02T22:07:30.561Z,32.75
2023-01-02T22:12:02.460Z,28.63
2023-01-02T22:21:50.490Z,30.00
2023-01-02T22:26:44.041Z,29.60
2023-01-02T22:31:37.813Z,30.38
2023-01-02T22:36:36.841Z,31.35
2023-01-02T22:41:39.031Z,29.83
2023-01-02T22:46:36.385Z,27.77
2023-01-02T22:51:57.675Z,28.00
2023-01-02T22:56:44.096Z,27.52
2023-01-02T23:01:39.932Z,27.67
2023-01-02T23:06:38.051Z,29.20
2023-01-02T23:11:44.872Z,28.73
2023-01-02T23:21:53.146Z,28.15
2023-01-02T23:26:49.184Z,27.85
2023-01-02T23:31:45.108Z,29.67
2023-01-02T23:36:38.221Z,29.90
2023-01-02T23:41:32.123Z,31.38
2023-01-02T23:46:25.507Z,29.55
2023-01-02T23:51:19.631Z,30.95
2023-01-02T23:56:27.936Z,29.80
